Time;durP1;ratioP1;P1;durP2;ratioP2;P2;SDS_P1;SDS_P2;PMS_P1;PMS_P2;Temp;Humidity;BMP_temperature;BMP_pressure;BME280_temperature;BME280_humidity;BME280_pressure;Samples;Min_cycle;Max_cycle;Signal;HPM_P1;HPM_P2
2021/05/07 00:01:09;;;;;;;186.23;166.27;;;;;;;7.62;69.00;97694.31;5082701;28;20038;-61
2021/05/07 00:03:34;;;;;;;187.37;167.77;;;;;;;7.59;69.86;97691.00;5080002;28;20036;-59
2021/05/07 00:06:03;;;;;;;184.70;165.67;;;;;;;7.62;69.98;97684.09;5085671;28;20066;-60
2021/05/07 00:08:33;;;;;;;188.47;170.53;;;;;;;7.68;70.02;97690.78;5083492;28;20327;-59
2021/05/07 00:11:02;;;;;;;188.50;170.13;;;;;;;7.79;68.86;97696.47;5081148;28;20038;-60
2021/05/07 00:13:27;;;;;;;181.40;163.40;;;;;;;7.90;67.97;97684.28;5078770;28;20127;-62
2021/05/07 00:15:53;;;;;;;189.43;171.43;;;;;;;8.01;67.62;97692.56;5081349;28;20112;-60
2021/05/07 00:18:19;;;;;;;191.73;173.47;;;;;;;8.15;67.36;97710.91;5082777;28;20086;-61
2021/05/07 00:20:45;;;;;;;196.87;179.10;;;;;;;8.20;66.80;97721.00;5084386;28;20032;-60
2021/05/07 00:23:10;;;;;;;189.10;171.47;;;;;;;8.23;66.97;97716.66;5082077;28;20435;-60
2021/05/07 00:25:36;;;;;;;177.87;163.07;;;;;;;8.24;66.75;97715.78;5080104;28;20038;-60
2021/05/07 00:28:12;;;;;;;185.50;168.60;;;;;;;8.31;66.95;97708.88;5080133;28;20277;-62
2021/05/07 00:30:38;;;;;;;212.97;194.93;;;;;;;8.26;66.67;97708.09;5083331;28;20401;-60
2021/05/07 00:33:05;;;;;;;207.50;188.53;;;;;;;8.31;66.69;97692.72;5077347;28;20043;-60
2021/05/07 00:35:31;;;;;;;199.80;181.70;;;;;;;8.40;65.82;97705.25;5080889;28;20115;-60
2021/05/07 00:37:57;;;;;;;207.70;188.73;;;;;;;8.32;66.38;97713.09;5083435;28;20532;-60
2021/05/07 00:40:23;;;;;;;205.00;186.57;;;;;;;8.37;66.40;97708.69;5078184;28;20036;-60
2021/05/07 00:42:49;;;;;;;201.80;182.97;;;;;;;8.35;65.96;97684.94;5082269;28;20036;-60
2021/05/07 00:45:16;;;;;;;202.70;184.40;;;;;;;8.44;66.26;97689.81;5096320;28;20166;-60
2021/05/07 00:47:47;;;;;;;219.00;198.90;;;;;;;8.52;66.29;97685.34;5083536;28;20036;-59
2021/05/07 00:50:13;;;;;;;214.87;195.07;;;;;;;8.49;66.13;97677.72;5085343;28;20024;-60
2021/05/07 00:52:39;;;;;;;217.43;198.03;;;;;;;8.46;66.68;97676.97;5084368;28;20036;-60
2021/05/07 00:55:06;;;;;;;215.57;195.67;;;;;;;8.47;66.24;97676.94;5082265;28;20047;-61
2021/05/07 00:57:33;;;;;;;212.30;192.63;;;;;;;8.47;66.91;97686.34;5097278;28;20043;-60
2021/05/07 00:59:58;;;;;;;223.13;202.00;;;;;;;8.47;67.05;97678.66;5080225;28;20105;-60
2021/05/07 01:02:24;;;;;;;232.60;211.43;;;;;;;8.53;67.05;97678.53;5082044;28;20394;-60
2021/05/07 01:04:50;;;;;;;231.97;211.50;;;;;;;8.58;66.52;97677.50;5083253;28;20657;-59
2021/05/07 01:07:16;;;;;;;222.90;203.50;;;;;;;8.58;66.05;97671.56;5080084;28;20105;-61
2021/05/07 01:09:42;;;;;;;220.87;201.53;;;;;;;8.58;65.74;97671.56;5081383;28;20389;-60
2021/05/07 01:12:09;;;;;;;221.17;201.17;;;;;;;8.65;65.52;97666.25;5086951;28;20123;-60
2021/05/07 01:14:35;;;;;;;230.20;210.17;;;;;;;8.60;66.13;97674.91;5081325;28;20043;-60
2021/05/07 01:17:00;;;;;;;224.13;202.90;;;;;;;8.64;65.49;97676.50;5081548;28;20037;-60
2021/05/07 01:19:27;;;;;;;236.93;215.67;;;;;;;8.63;66.17;97672.28;5082913;28;20362;-61
2021/05/07 01:21:53;;;;;;;241.57;219.60;;;;;;;8.65;65.60;97662.88;5081066;28;20066;-61
2021/05/07 01:24:18;;;;;;;230.10;208.77;;;;;;;8.64;65.85;97677.34;5093170;28;20374;-61
2021/05/07 01:26:43;;;;;;;226.53;206.67;;;;;;;8.64;65.83;97658.63;5083257;28;20032;-61
2021/05/07 01:29:13;;;;;;;231.67;211.43;;;;;;;8.72;66.12;97649.03;5082822;28;20059;-60
2021/05/07 01:31:42;;;;;;;226.53;206.43;;;;;;;8.74;66.02;97634.50;5080722;28;20481;-60
2021/05/07 01:34:08;;;;;;;223.43;203.80;;;;;;;8.70;66.55;97632.88;5083533;28;20063;-61
2021/05/07 01:36:33;;;;;;;224.87;206.20;;;;;;;8.74;66.83;97624.28;5081213;28;20051;-60
2021/05/07 01:39:00;;;;;;;224.27;205.70;;;;;;;8.77;65.95;97620.81;5078672;28;20031;-60
2021/05/07 01:41:25;;;;;;;224.63;205.63;;;;;;;8.72;66.43;97613.25;5082289;28;20036;-61
2021/05/07 01:43:50;;;;;;;214.47;196.20;;;;;;;8.67;66.77;97630.44;5080902;28;20262;-60
2021/05/07 01:46:16;;;;;;;213.63;195.30;;;;;;;8.66;67.09;97631.31;5079763;28;20126;-60
2021/05/07 01:48:41;;;;;;;214.13;196.60;;;;;;;8.67;67.63;97635.53;5083568;28;20081;-60
2021/05/07 01:51:08;;;;;;;218.50;201.33;;;;;;;8.70;67.82;97618.41;5084535;28;20032;-61
2021/05/07 01:53:34;;;;;;;215.90;198.53;;;;;;;8.70;68.13;97620.13;5087453;28;20346;-60
2021/05/07 01:55:59;;;;;;;217.83;200.40;;;;;;;8.71;67.68;97591.13;5083751;28;20032;-60
2021/05/07 01:58:25;;;;;;;203.30;186.83;;;;;;;8.72;67.72;97605.59;5085360;28;20281;-60
2021/05/07 02:00:51;;;;;;;222.13;204.23;;;;;;;8.73;68.22;97589.38;5095223;28;20032;-60
2021/05/07 02:03:17;;;;;;;219.73;202.53;;;;;;;8.79;68.29;97603.69;5084285;28;20374;-60
2021/05/07 02:05:42;;;;;;;208.77;192.27;;;;;;;8.85;68.79;97611.19;5086480;28;20055;-60
2021/05/07 02:08:08;;;;;;;211.97;194.30;;;;;;;9.00;68.79;97614.13;5085122;28;20124;-60
2021/05/07 02:10:35;;;;;;;228.93;210.97;;;;;;;9.09;68.01;97607.91;5086154;28;20081;-61
2021/05/07 02:13:05;;;;;;;222.97;205.73;;;;;;;9.28;67.83;97614.19;5080703;28;20274;-61
2021/05/07 02:15:31;;;;;;;224.73;207.53;;;;;;;9.64;65.43;97612.19;5083015;28;20036;-61
2021/05/07 02:17:57;;;;;;;242.90;224.47;;;;;;;10.04;63.45;97602.34;5083615;28;20109;-61
2021/05/07 02:20:25;;;;;;;228.63;211.53;;;;;;;10.23;62.41;97596.59;5084868;28;20112;-60
2021/05/07 02:22:51;;;;;;;224.10;207.50;;;;;;;10.22;62.82;97606.03;5084638;28;20036;-61
2021/05/07 02:25:19;;;;;;;234.03;217.20;;;;;;;10.30;62.31;97610.91;5084829;28;20267;-60
2021/05/07 02:27:45;;;;;;;249.33;231.33;;;;;;;10.28;62.85;97615.22;5082052;28;20032;-60
2021/05/07 02:30:13;;;;;;;246.27;228.60;;;;;;;10.29;63.43;97630.56;5085887;28;20093;-61
2021/05/07 02:32:39;;;;;;;250.37;232.27;;;;;;;10.29;63.14;97638.25;5083452;28;20077;-59
2021/05/07 02:35:06;;;;;;;243.30;225.93;;;;;;;10.35;62.99;97639.78;5082487;28;20040;-60
2021/05/07 02:37:31;;;;;;;244.67;227.33;;;;;;;10.36;63.46;97649.94;5084307;28;20046;-60
2021/05/07 02:39:57;;;;;;;250.43;233.10;;;;;;;10.40;62.81;97650.69;5085545;28;20024;-60
2021/05/07 02:42:22;;;;;;;245.17;228.10;;;;;;;10.46;61.87;97650.47;5084394;28;20032;-60
2021/05/07 02:44:48;;;;;;;274.83;256.30;;;;;;;10.51;61.44;97646.88;5082665;28;20028;-60
2021/05/07 02:47:13;;;;;;;238.40;222.70;;;;;;;10.47;61.63;97631.66;5086336;28;20069;-60
2021/05/07 02:49:39;;;;;;;250.63;234.13;;;;;;;10.46;62.39;97635.09;5083089;28;20127;-60
2021/05/07 02:52:05;;;;;;;242.10;226.33;;;;;;;10.49;62.32;97653.75;5084800;28;20024;-60
2021/05/07 02:54:31;;;;;;;243.23;227.60;;;;;;;10.51;62.79;97646.03;5082185;28;20028;-62
2021/05/07 02:56:57;;;;;;;252.10;235.50;;;;;;;10.46;62.94;97650.47;5085039;28;20392;-60
2021/05/07 02:59:23;;;;;;;259.27;242.30;;;;;;;10.44;63.29;97655.66;5082321;28;20131;-60
2021/05/07 03:01:52;;;;;;;251.30;234.97;;;;;;;10.62;61.72;97664.44;5082294;28;20040;-62
2021/05/07 03:04:19;;;;;;;246.03;229.77;;;;;;;10.74;61.09;97661.44;5083418;28;20047;-60
2021/05/07 03:06:48;;;;;;;233.60;218.23;;;;;;;10.79;60.77;97658.72;5084283;28;20087;-61
2021/05/07 03:09:14;;;;;;;224.23;210.43;;;;;;;10.90;60.04;97657.47;5083873;28;20054;-61
2021/05/07 03:11:39;;;;;;;232.83;218.37;;;;;;;11.09;59.19;97654.22;5085800;28;20373;-61
2021/05/07 03:14:05;;;;;;;231.47;216.73;;;;;;;11.18;58.66;97652.16;5081801;28;20326;-62
2021/05/07 03:16:31;;;;;;;229.73;215.57;;;;;;;11.27;58.19;97650.97;5081779;28;20040;-62
2021/05/07 03:18:56;;;;;;;230.53;216.33;;;;;;;11.53;56.11;97626.88;5093480;28;20038;-59
2021/05/07 03:21:22;;;;;;;245.85;231.38;;;;;;;11.80;55.87;97636.94;5084220;28;20035;-61
2021/05/07 03:23:48;;;;;;;244.60;229.83;;;;;;;11.89;55.25;97636.56;5084071;28;20085;-61
2021/05/07 03:26:14;;;;;;;225.73;212.80;;;;;;;11.95;54.83;97645.75;5083655;28;20036;-60
2021/05/07 03:28:39;;;;;;;253.77;238.67;;;;;;;12.00;54.71;97633.56;5083151;28;20605;-60
2021/05/07 03:31:05;;;;;;;238.38;224.10;;;;;;;12.20;53.36;97635.31;5083583;28;20024;-59
2021/05/07 03:33:31;;;;;;;267.00;250.40;;;;;;;12.38;52.91;97637.13;5081640;28;20100;-60
2021/05/07 03:35:56;;;;;;;251.23;236.33;;;;;;;12.32;53.12;97650.22;5086196;28;20432;-61
2021/05/07 03:38:22;;;;;;;254.27;239.47;;;;;;;12.36;53.14;97654.34;5083995;28;20062;-60
2021/05/07 03:40:47;;;;;;;268.35;252.80;;;;;;;12.41;53.21;97660.13;5082400;28;20352;-60
2021/05/07 03:43:12;;;;;;;279.27;263.40;;;;;;;12.46;52.65;97673.63;5085970;28;20329;-60
2021/05/07 03:45:38;;;;;;;260.88;245.57;;;;;;;12.48;52.87;97664.09;5080761;28;20036;-60
2021/05/07 03:48:32;;;;;;;267.13;251.80;;;;;;;12.35;54.24;97675.78;5082108;28;20028;-60
2021/05/07 03:50:58;;;;;;;251.30;237.02;;;;;;;12.19;54.81;97685.88;5080908;28;20602;-59
2021/05/07 03:53:24;;;;;;;273.65;257.65;;;;;;;12.05;55.70;97695.03;5081015;28;20029;-61
2021/05/07 03:55:50;;;;;;;273.90;258.55;;;;;;;11.90;55.91;97691.34;5084191;28;20028;-62
2021/05/07 03:58:16;;;;;;;268.65;253.60;;;;;;;11.81;56.32;97699.41;5084025;28;20344;-61
2021/05/07 04:00:42;;;;;;;275.60;259.35;;;;;;;11.71;56.68;97705.78;5084833;28;20039;-61
2021/05/07 04:03:08;;;;;;;267.52;251.63;;;;;;;11.58;57.97;97709.69;5081007;28;20392;-61
2021/05/07 04:05:34;;;;;;;269.92;254.55;;;;;;;11.53;58.21;97704.72;5083363;28;20024;-62
2021/05/07 04:10:39;;;;;;;266.77;251.27;;;;;;;11.25;60.57;97696.34;5082490;28;20032;-62
2021/05/07 04:15:30;;;;;;;263.67;247.88;;;;;;;11.17;60.78;97711.19;5081529;28;20042;-60
2021/05/07 04:17:55;;;;;;;269.42;253.43;;;;;;;11.09;61.45;97703.78;5084255;28;20035;-61
2021/05/07 04:20:21;;;;;;;271.98;255.27;;;;;;;11.04;61.61;97692.00;5081425;28;20315;-62
2021/05/07 04:22:46;;;;;;;268.17;252.40;;;;;;;11.06;61.38;97691.06;5083464;28;20282;-61
2021/05/07 04:25:12;;;;;;;256.88;241.07;;;;;;;11.00;62.68;97692.13;5097111;28;20024;-61
2021/05/07 04:27:38;;;;;;;242.80;228.43;;;;;;;10.88;63.55;97705.38;5084172;28;20055;-62
2021/05/07 04:30:06;;;;;;;254.47;237.47;;;;;;;10.91;62.47;97718.09;5082743;28;20320;-61
2021/05/07 04:32:32;;;;;;;253.77;238.23;;;;;;;11.05;61.19;97715.03;5084284;28;20032;-61
2021/05/07 04:34:57;;;;;;;249.20;233.87;;;;;;;11.11;61.01;97716.56;5080335;28;20036;-61
2021/05/07 04:37:23;;;;;;;254.03;238.47;;;;;;;11.16;60.33;97733.44;5086425;28;20066;-62
2021/05/07 04:39:48;;;;;;;263.48;247.20;;;;;;;11.22;59.87;97747.78;5080615;28;20028;-65
2021/05/07 04:42:14;;;;;;;273.37;256.53;;;;;;;11.25;60.49;97743.38;5084579;28;20028;-61
2021/05/07 04:44:41;;;;;;;294.37;274.43;;;;;;;11.28;60.86;97750.16;5082814;28;20119;-61
2021/05/07 04:47:07;;;;;;;284.53;266.30;;;;;;;11.30;60.54;97758.63;5081463;28;20024;-61
2021/05/07 04:49:32;;;;;;;290.65;272.00;;;;;;;11.31;61.38;97770.56;5081051;28;20036;-61
2021/05/07 04:51:58;;;;;;;287.20;269.23;;;;;;;11.31;60.84;97780.81;5083840;28;20127;-61
2021/05/07 04:54:25;;;;;;;287.10;268.95;;;;;;;11.36;60.69;97794.34;5078754;28;20043;-61
2021/05/07 04:56:50;;;;;;;293.67;275.03;;;;;;;11.38;60.77;97798.50;5080528;28;20201;-61
2021/05/07 04:59:16;;;;;;;296.73;277.77;;;;;;;11.46;60.24;97791.38;5081952;28;20382;-61
2021/05/07 05:01:41;;;;;;;319.47;298.50;;;;;;;11.51;60.56;97795.50;5081917;28;20356;-61
2021/05/07 05:04:06;;;;;;;323.63;300.97;;;;;;;11.44;60.51;97785.47;5084589;28;20032;-60
2021/05/07 05:06:32;;;;;;;314.43;294.13;;;;;;;11.41;60.84;97798.41;5083638;28;20448;-61
2021/05/07 05:08:57;;;;;;;280.73;262.63;;;;;;;11.46;61.12;97808.50;5083364;28;20028;-61
2021/05/07 05:11:23;;;;;;;304.25;284.98;;;;;;;11.50;60.00;97802.34;5085741;28;20389;-61
2021/05/07 05:13:48;;;;;;;295.30;276.17;;;;;;;11.50;60.09;97789.53;5087813;28;20036;-59
2021/05/07 05:16:14;;;;;;;279.00;261.70;;;;;;;11.51;60.51;97793.78;5081642;28;20123;-61
2021/05/07 05:18:39;;;;;;;295.85;276.83;;;;;;;11.58;59.61;97781.56;5084528;28;20035;-60
2021/05/07 05:21:06;;;;;;;280.67;263.20;;;;;;;11.92;56.71;97774.31;5084733;28;20032;-61
2021/05/07 05:23:32;;;;;;;302.42;283.67;;;;;;;12.22;55.14;97777.44;5083209;28;20035;-61
2021/05/07 05:25:59;;;;;;;270.17;254.23;;;;;;;12.54;53.19;97758.16;5086025;28;20269;-61
2021/05/07 05:28:25;;;;;;;326.10;306.15;;;;;;;12.76;52.01;97757.22;5082660;28;20055;-61
2021/05/07 05:30:51;;;;;;;336.40;315.00;;;;;;;12.83;52.38;97758.63;5085263;28;20045;-61
2021/05/07 05:33:17;;;;;;;335.58;314.77;;;;;;;12.89;51.88;97759.25;5085957;28;20289;-61
2021/05/07 05:35:44;;;;;;;344.45;323.55;;;;;;;12.89;52.15;97754.13;5085999;28;20082;-61
2021/05/07 05:38:09;;;;;;;338.05;316.92;;;;;;;12.86;52.11;97755.06;5085207;28;20055;-61
2021/05/07 05:40:35;;;;;;;321.70;302.33;;;;;;;12.88;52.39;97747.28;5090298;28;20401;-61
2021/05/07 05:43:01;;;;;;;344.17;323.17;;;;;;;12.81;53.35;97755.25;5087085;28;20064;-62
2021/05/07 05:45:27;;;;;;;334.98;314.30;;;;;;;12.62;55.10;97754.38;5082893;28;20062;-62
2021/05/07 05:48:15;;;;;;;333.83;314.05;;;;;;;12.65;55.27;97766.25;5083879;28;20115;-62
2021/05/07 05:50:43;;;;;;;321.98;302.58;;;;;;;12.54;56.58;97761.56;5086578;28;20429;-61
2021/05/07 05:53:09;;;;;;;335.38;315.45;;;;;;;12.43;57.53;97766.31;5082651;28;20104;-62
2021/05/07 05:55:38;;;;;;;347.70;326.90;;;;;;;12.47;58.17;97773.00;5086079;28;20255;-61
2021/05/07 05:58:04;;;;;;;332.05;311.73;;;;;;;12.41;58.08;97772.38;5084690;28;20025;-61
2021/05/07 06:00:30;;;;;;;309.33;290.98;;;;;;;12.42;57.17;97769.78;5084904;28;20078;-61
2021/05/07 06:02:55;;;;;;;312.73;295.00;;;;;;;12.48;57.56;97784.09;5084926;28;20611;-61
2021/05/07 06:05:21;;;;;;;322.42;303.10;;;;;;;12.35;58.74;97784.59;5086023;28;20035;-61
2021/05/07 06:07:46;;;;;;;313.60;295.05;;;;;;;12.45;58.71;97771.38;5086466;28;20042;-61
2021/05/07 06:10:13;;;;;;;296.08;278.20;;;;;;;12.28;59.15;97787.47;5093175;28;20028;-61
2021/05/07 06:12:40;;;;;;;321.85;301.80;;;;;;;12.22;59.63;97785.97;5087268;28;20027;-62
2021/05/07 06:15:06;;;;;;;312.00;293.08;;;;;;;12.21;60.48;97796.31;5084594;28;20085;-60
2021/05/07 06:17:33;;;;;;;303.38;285.13;;;;;;;12.23;59.74;97797.06;5084719;28;20033;-60
2021/05/07 06:20:02;;;;;;;315.67;296.73;;;;;;;12.23;60.27;97804.78;5084160;28;20051;-60
2021/05/07 06:22:27;;;;;;;317.55;298.35;;;;;;;12.25;60.15;97810.72;5084376;28;20028;-60
2021/05/07 06:24:52;;;;;;;339.60;317.83;;;;;;;12.16;61.00;97821.34;5082071;28;20328;-60
2021/05/07 06:27:18;;;;;;;337.13;315.90;;;;;;;12.23;60.55;97815.06;5081495;28;20159;-60
2021/05/07 06:29:44;;;;;;;315.73;296.58;;;;;;;12.12;60.48;97812.94;5085806;28;20050;-60
2021/05/07 06:32:09;;;;;;;331.27;310.50;;;;;;;12.13;60.75;97809.47;5083820;28;20028;-60
2021/05/07 06:34:35;;;;;;;282.40;265.35;;;;;;;12.14;60.55;97818.00;5084321;28;20103;-60
2021/05/07 06:37:00;;;;;;;348.13;326.67;;;;;;;12.18;60.25;97832.38;5087741;28;20036;-60
2021/05/07 06:39:29;;;;;;;345.80;324.17;;;;;;;12.26;60.15;97832.97;5082374;28;20020;-60
2021/05/07 06:41:56;;;;;;;352.60;328.38;;;;;;;12.31;60.73;97838.75;5084782;28;20444;-60
2021/05/07 06:44:21;;;;;;;326.80;306.38;;;;;;;12.34;61.10;97838.63;5084393;28;20297;-61
2021/05/07 06:46:47;;;;;;;311.55;292.10;;;;;;;12.49;60.35;97845.75;5083234;28;20031;-60
2021/05/07 06:49:12;;;;;;;320.90;302.00;;;;;;;12.57;59.88;97843.69;5081933;28;20259;-61
2021/05/07 06:51:38;;;;;;;301.67;283.80;;;;;;;12.60;60.64;97856.44;5083946;28;20023;-61
2021/05/07 06:54:06;;;;;;;312.88;294.52;;;;;;;12.68;59.89;97867.28;5084091;28;20078;-61
2021/05/07 06:56:31;;;;;;;330.77;310.17;;;;;;;12.91;59.68;97878.34;5085048;28;20046;-61
2021/05/07 06:58:57;;;;;;;333.80;312.92;;;;;;;12.93;59.95;97876.56;5083385;28;20013;-61
2021/05/07 07:01:22;;;;;;;330.48;310.98;;;;;;;12.96;60.41;97868.72;5085935;28;20028;-61
2021/05/07 07:03:48;;;;;;;324.48;304.73;;;;;;;12.95;60.84;97862.75;5086252;28;20024;-60
2021/05/07 07:06:13;;;;;;;337.65;317.42;;;;;;;12.96;60.64;97848.16;5093500;28;20059;-61
2021/05/07 07:08:39;;;;;;;350.23;328.95;;;;;;;12.89;60.19;97849.31;5086359;28;20040;-61
2021/05/07 07:11:04;;;;;;;355.88;333.88;;;;;;;12.84;60.51;97836.63;5082921;28;20032;-61
2021/05/07 07:13:30;;;;;;;330.17;310.77;;;;;;;12.70;60.75;97855.19;5083720;28;20056;-61
2021/05/07 07:15:55;;;;;;;317.80;299.67;;;;;;;12.83;60.57;97837.50;5082639;28;20411;-60
2021/05/07 07:18:21;;;;;;;318.90;300.33;;;;;;;12.88;60.37;97835.59;5082852;28;20049;-61
2021/05/07 07:20:48;;;;;;;297.50;280.75;;;;;;;12.90;60.23;97832.97;5075607;28;20027;-61
2021/05/07 07:23:14;;;;;;;313.98;295.55;;;;;;;12.95;59.77;97839.59;5083234;28;20028;-60
2021/05/07 07:25:40;;;;;;;298.40;281.42;;;;;;;12.99;60.62;97848.00;5086291;28;20348;-61
2021/05/07 07:28:06;;;;;;;313.15;295.50;;;;;;;13.02;60.42;97853.91;5081853;28;20111;-61
2021/05/07 07:30:32;;;;;;;290.92;274.42;;;;;;;13.05;60.74;97858.06;5084487;28;20024;-61
2021/05/07 07:32:57;;;;;;;285.48;269.58;;;;;;;13.20;60.35;97867.75;5085353;28;20362;-61
2021/05/07 07:35:23;;;;;;;276.10;261.17;;;;;;;13.34;59.97;97868.00;5086113;28;20099;-60
2021/05/07 07:37:48;;;;;;;285.70;269.30;;;;;;;13.53;59.81;97868.06;5082902;28;20294;-61
2021/05/07 07:40:14;;;;;;;278.83;263.80;;;;;;;13.73;59.03;97863.72;5082444;28;20121;-61
2021/05/07 07:42:40;;;;;;;279.02;264.20;;;;;;;14.02;58.29;97871.91;5082234;28;20032;-61
2021/05/07 07:45:08;;;;;;;249.88;236.77;;;;;;;14.28;57.61;97855.25;5081566;28;20041;-62
2021/05/07 07:47:34;;;;;;;247.88;235.15;;;;;;;14.48;56.29;97856.03;5084671;28;20025;-61
2021/05/07 07:49:59;;;;;;;263.80;250.10;;;;;;;14.72;55.28;97861.78;5083199;28;20358;-60
2021/05/07 07:52:25;;;;;;;272.35;258.38;;;;;;;14.88;54.82;97856.72;5081122;28;20035;-60
2021/05/07 07:54:51;;;;;;;215.05;203.88;;;;;;;14.86;54.88;97843.88;5082942;28;20119;-61
2021/05/07 07:57:16;;;;;;;176.98;168.18;;;;;;;14.87;54.96;97839.53;5082308;28;20035;-61
2021/05/07 07:59:42;;;;;;;49.08;45.53;;;;;;;14.87;55.57;97847.28;5080989;28;20028;-60
2021/05/07 08:02:07;;;;;;;52.10;47.88;;;;;;;14.84;56.26;97853.44;5082963;28;20082;-60
2021/05/07 08:04:32;;;;;;;55.35;51.38;;;;;;;14.91;57.23;97843.66;5080644;28;20036;-61
2021/05/07 08:07:00;;;;;;;52.03;48.85;;;;;;;15.06;55.73;97825.66;5080150;28;20048;-60
2021/05/07 08:09:25;;;;;;;54.50;51.15;;;;;;;15.26;55.85;97818.66;5083277;28;20372;-61
2021/05/07 08:11:52;;;;;;;72.32;68.10;;;;;;;15.41;54.25;97828.19;5080699;28;20024;-61
2021/05/07 08:14:18;;;;;;;67.63;63.50;;;;;;;15.53;52.20;97818.09;5079655;28;20448;-60
2021/05/07 08:16:44;;;;;;;66.03;62.33;;;;;;;15.29;53.18;97803.84;5082804;28;20377;-61
2021/05/07 08:19:09;;;;;;;73.30;69.68;;;;;;;15.28;54.09;97806.50;5082840;28;20093;-61
2021/05/07 08:21:35;;;;;;;66.35;62.85;;;;;;;15.26;53.98;97813.50;5084518;28;20031;-60
2021/05/07 08:24:00;;;;;;;70.60;66.47;;;;;;;15.41;54.07;97815.28;5079761;28;20028;-61
2021/05/07 08:26:25;;;;;;;62.08;57.58;;;;;;;15.62;53.67;97819.38;5092445;28;20028;-61
2021/05/07 08:28:51;;;;;;;82.95;76.78;;;;;;;15.74;54.21;97810.16;5080371;28;20565;-61
2021/05/07 08:31:16;;;;;;;67.70;64.07;;;;;;;15.88;52.91;97828.34;5081882;28;20332;-61
2021/05/07 08:33:42;;;;;;;65.20;61.50;;;;;;;15.85;52.21;97824.19;5083738;28;20024;-61
2021/05/07 08:36:07;;;;;;;56.47;53.40;;;;;;;15.89;52.61;97841.19;5083106;28;20365;-61
2021/05/07 08:38:34;;;;;;;63.25;59.53;;;;;;;16.04;51.89;97842.13;5083541;28;20020;-61
2021/05/07 08:41:04;;;;;;;71.63;67.65;;;;;;;16.12;51.63;97832.22;5082751;28;20540;-61
2021/05/07 08:43:30;;;;;;;56.75;53.38;;;;;;;16.12;51.19;97821.88;5082347;28;20025;-61
2021/05/07 08:45:56;;;;;;;57.35;53.60;;;;;;;16.52;51.17;97824.84;5082310;28;20029;-61
2021/05/07 08:48:25;;;;;;;63.60;59.85;;;;;;;16.32;50.79;97828.53;5082366;28;20028;-62
2021/05/07 08:50:53;;;;;;;48.90;45.85;;;;;;;16.46;50.67;97829.44;5082664;28;20020;-60
2021/05/07 08:53:19;;;;;;;59.63;55.65;;;;;;;16.63;51.43;97815.63;5083166;28;20024;-60
2021/05/07 08:55:45;;;;;;;51.28;48.08;;;;;;;16.83;50.06;97819.66;5085689;28;20452;-60
2021/05/07 08:58:12;;;;;;;53.00;50.03;;;;;;;17.16;47.71;97822.88;5085444;28;20051;-61
2021/05/07 09:00:38;;;;;;;69.68;65.35;;;;;;;17.35;46.90;97815.69;5083529;28;20024;-65
2021/05/07 09:03:12;;;;;;;67.90;63.95;;;;;;;17.53;46.35;97823.28;5087732;28;20035;-59
2021/05/07 09:05:38;;;;;;;63.08;59.70;;;;;;;17.39;46.54;97834.50;5086425;28;20097;-60
2021/05/07 09:08:07;;;;;;;77.97;74.10;;;;;;;17.48;45.49;97814.97;5084201;28;20115;-60
2021/05/07 09:10:43;;;;;;;62.00;58.58;;;;;;;17.45;46.28;97825.50;5085481;28;20074;-60
2021/05/07 09:13:11;;;;;;;64.63;61.13;;;;;;;17.16;46.35;97833.25;5086177;28;20051;-60
2021/05/07 09:15:43;;;;;;;67.78;64.65;;;;;;;17.36;45.10;97827.72;5086170;28;20365;-60
2021/05/07 09:18:14;;;;;;;60.97;58.00;;;;;;;17.60;44.27;97824.63;5086298;28;20631;-60
2021/05/07 09:20:49;;;;;;;48.33;45.45;;;;;;;17.36;44.87;97840.69;5087425;28;20024;-60
2021/05/07 09:23:17;;;;;;;42.88;40.38;;;;;;;17.62;43.63;97838.31;5085471;28;20032;-60
2021/05/07 09:25:45;;;;;;;57.70;54.63;;;;;;;17.36;41.15;97843.25;5086599;28;20318;-60
2021/05/07 09:28:16;;;;;;;62.92;59.42;;;;;;;17.18;42.74;97856.47;5094722;28;20097;-61
2021/05/07 09:30:44;;;;;;;85.95;81.88;;;;;;;16.97;42.73;97855.13;5083822;28;20403;-61
2021/05/07 09:33:12;;;;;;;91.10;86.80;;;;;;;16.62;43.72;97859.69;5100961;28;20029;-60
2021/05/07 09:35:39;;;;;;;156.60;149.13;;;;;;;16.28;43.84;97855.50;5085253;28;20111;-60
2021/05/07 09:38:06;;;;;;;143.57;136.55;;;;;;;16.39;44.69;97864.34;5088343;28;20068;-61
2021/05/07 09:40:33;;;;;;;118.20;112.65;;;;;;;16.62;43.69;97854.50;5086862;28;20028;-61
2021/05/07 09:43:10;;;;;;;97.18;92.28;;;;;;;16.70;43.29;97854.91;5088636;28;20281;-60
2021/05/07 09:45:39;;;;;;;126.60;120.50;;;;;;;16.60;43.60;97854.59;5088125;28;20028;-60
2021/05/07 09:48:15;;;;;;;154.48;146.98;;;;;;;16.83;43.42;97851.56;5086978;28;20024;-61
2021/05/07 09:50:41;;;;;;;192.25;183.27;;;;;;;16.50;44.52;97858.59;5086896;28;20056;-61
2021/05/07 09:53:14;;;;;;;158.05;151.02;;;;;;;16.98;42.98;97849.00;5085747;28;20170;-60
2021/05/07 09:55:41;;;;;;;208.75;199.27;;;;;;;16.52;44.22;97859.31;5084727;28;20043;-61
2021/05/07 09:58:06;;;;;;;341.10;324.02;;;;;;;16.37;44.51;97855.84;5084482;28;20057;-61
2021/05/07 10:00:32;;;;;;;343.85;326.20;;;;;;;16.25;45.05;97851.31;5085546;28;20036;-60
2021/05/07 10:02:58;;;;;;;307.55;292.33;;;;;;;16.22;45.07;97861.81;5086404;28;20036;-60
2021/05/07 10:05:24;;;;;;;177.23;168.88;;;;;;;16.23;44.35;97860.91;5101481;28;20043;-60
2021/05/07 10:07:50;;;;;;;289.17;275.15;;;;;;;16.34;43.34;97861.16;5082736;28;20036;-61
2021/05/07 10:10:17;;;;;;;284.95;271.17;;;;;;;15.89;44.94;97869.63;5084770;28;20036;-61
2021/05/07 10:12:45;;;;;;;248.65;236.80;;;;;;;15.67;45.50;97870.81;5085782;28;20031;-61
2021/05/07 10:15:11;;;;;;;166.70;157.10;;;;;;;15.57;45.46;97874.81;5085323;28;20055;-61
2021/05/07 10:17:48;;;;;;;126.80;120.95;;;;;;;15.71;44.94;97869.75;5085602;28;20290;-61
2021/05/07 10:20:25;;;;;;;253.32;240.68;;;;;;;16.02;45.10;97868.97;5101790;28;20040;-60
2021/05/07 10:22:52;;;;;;;225.60;214.93;;;;;;;15.59;47.06;97878.97;5084325;28;20036;-60
2021/05/07 10:25:19;;;;;;;243.20;230.82;;;;;;;15.63;46.70;97880.47;5098342;28;20036;-60
2021/05/07 10:27:47;;;;;;;236.35;224.43;;;;;;;15.71;46.93;97890.41;5084048;28;20020;-60
2021/05/07 10:30:27;;;;;;;242.32;230.05;;;;;;;15.51;46.80;97889.69;5081591;28;20351;-61
2021/05/07 10:33:01;;;;;;;190.82;181.75;;;;;;;15.58;47.39;97879.03;5083506;28;20032;-61
2021/05/07 10:35:36;;;;;;;200.13;190.57;;;;;;;15.44;47.03;97888.31;5080218;28;20055;-60
2021/05/07 10:38:19;;;;;;;213.85;203.20;;;;;;;15.35;47.56;97868.09;5088786;28;20186;-60
2021/05/07 10:40:46;;;;;;;200.80;191.30;;;;;;;15.55;46.31;97877.44;5085533;28;20028;-61
2021/05/07 10:43:13;;;;;;;216.75;206.35;;;;;;;15.69;47.45;97887.09;5087123;28;20024;-61
2021/05/07 10:45:51;;;;;;;194.75;185.27;;;;;;;16.08;47.03;97899.69;5084661;28;20040;-61
2021/05/07 10:48:25;;;;;;;214.68;204.43;;;;;;;15.42;47.73;97910.78;5083425;28;20285;-61
2021/05/07 10:50:53;;;;;;;216.82;206.23;;;;;;;15.23;48.70;97902.28;5083528;28;20111;-61
2021/05/07 10:53:27;;;;;;;214.43;203.98;;;;;;;15.33;47.75;97900.91;5085515;28;20035;-61
2021/05/07 10:55:54;;;;;;;194.77;183.90;;;;;;;15.31;47.68;97902.75;5079726;28;20039;-61
2021/05/07 10:58:35;;;;;;;199.07;189.48;;;;;;;15.64;47.15;97891.66;5085032;28;20036;-61
2021/05/07 11:01:14;;;;;;;188.27;179.23;;;;;;;15.68;45.75;97880.25;5085169;28;20028;-61
2021/05/07 11:03:40;;;;;;;208.43;198.07;;;;;;;15.77;46.30;97880.63;5102543;28;20028;-62
2021/05/07 11:06:05;;;;;;;185.60;176.55;;;;;;;15.73;45.26;97889.44;5084702;28;20049;-61
2021/05/07 11:08:32;;;;;;;189.15;180.13;;;;;;;16.04;43.86;97895.59;5086695;28;20024;-61